createdAt,value
2023-12-23T00:01:05.669Z,98106.88
2023-12-23T00:04:08.100Z,98070.25
2023-12-23T00:07:13.974Z,98104.66
2023-12-23T00:10:16.700Z,98110.91
2023-12-23T00:13:19.198Z,98112.13
2023-12-23T00:16:21.583Z,98067.66
2023-12-23T00:19:24.027Z,98102.81
2023-12-23T00:22:27.100Z,98099.06
2023-12-23T00:25:29.473Z,98111.56
2023-12-23T00:28:31.825Z,98127.75
2023-12-23T00:31:34.229Z,98096.31
2023-12-23T00:34:38.062Z,98133.47
2023-12-23T00:37:41.118Z,98130.09
2023-12-23T00:40:43.676Z,98100.91
2023-12-23T00:43:46.117Z,98097.50
2023-12-23T00:46:48.480Z,98112.22
2023-12-23T00:49:50.910Z,98081.66
2023-12-23T00:52:53.368Z,98110.94
2023-12-23T00:55:55.907Z,98140.97
2023-12-23T00:58:58.303Z,98147.00
2023-12-23T01:02:00.686Z,98134.97
2023-12-23T01:05:03.264Z,98126.81
2023-12-23T01:08:06.099Z,98147.50
2023-12-23T01:11:09.910Z,98157.53
2023-12-23T01:14:12.342Z,98147.69
2023-12-23T01:17:14.742Z,98137.94
2023-12-23T01:20:17.364Z,98143.00
2023-12-23T01:23:20.059Z,98147.53
2023-12-23T01:26:23.199Z,98157.13
2023-12-23T01:29:25.573Z,98115.56
2023-12-23T01:32:27.983Z,98144.13
2023-12-23T01:35:30.440Z,98115.19
2023-12-23T01:38:34.576Z,98146.28
2023-12-23T01:41:37.012Z,98120.03
2023-12-23T01:44:39.329Z,98131.75
2023-12-23T01:47:45.051Z,98108.91
2023-12-23T01:50:47.623Z,98110.44
2023-12-23T01:53:50.331Z,98145.16
2023-12-23T01:56:54.279Z,98142.88
2023-12-23T01:59:57.188Z,98151.94
2023-12-23T02:03:00.929Z,98120.28
2023-12-23T02:06:04.065Z,98150.22
2023-12-23T02:09:06.785Z,98143.44
2023-12-23T02:12:15.467Z,98136.66
2023-12-23T02:15:19.961Z,98112.72
2023-12-23T02:18:24.723Z,98103.03
2023-12-23T02:21:29.016Z,98088.84
2023-12-23T02:24:31.545Z,98112.38
2023-12-23T02:27:51.291Z,98132.88
2023-12-23T02:30:55.011Z,98105.91
2023-12-23T02:33:57.703Z,98099.09
2023-12-23T02:37:00.150Z,98123.22
2023-12-23T02:40:02.683Z,98109.31
2023-12-23T02:43:05.097Z,98124.56
2023-12-23T02:46:07.524Z,98120.72
2023-12-23T02:49:10.973Z,98116.34
2023-12-23T02:52:13.433Z,98148.78
2023-12-23T02:55:16.576Z,98154.97
2023-12-23T02:58:18.981Z,98161.94
2023-12-23T03:01:21.890Z,98183.34
2023-12-23T03:04:24.259Z,98179.97
2023-12-23T03:07:26.818Z,98169.22
2023-12-23T03:10:29.152Z,98175.09
2023-12-23T03:13:31.510Z,98198.72
2023-12-23T03:16:37.085Z,98203.09
2023-12-23T03:19:42.330Z,98186.13
2023-12-23T03:22:44.783Z,98206.91
2023-12-23T03:25:47.232Z,98194.16
2023-12-23T03:28:49.585Z,98193.88
2023-12-23T03:31:52.034Z,98157.22
2023-12-23T03:34:54.444Z,98214.94
2023-12-23T03:37:56.804Z,98196.84
2023-12-23T03:40:59.182Z,98192.38
2023-12-23T03:44:01.627Z,98227.84
2023-12-23T03:47:04.356Z,98257.69
2023-12-23T03:50:07.264Z,98229.91
2023-12-23T03:53:10.894Z,98260.28
2023-12-23T03:56:13.380Z,98232.09
2023-12-23T03:59:15.886Z,98185.44
2023-12-23T04:02:18.399Z,98196.50
2023-12-23T04:05:21.053Z,98201.06
2023-12-23T04:08:23.633Z,98236.47
2023-12-23T04:11:26.070Z,98217.72
2023-12-23T04:14:29.275Z,98169.53
2023-12-23T04:17:31.635Z,98192.78
2023-12-23T04:20:34.060Z,98235.41
2023-12-23T04:23:37.272Z,98239.09
2023-12-23T04:26:39.660Z,98229.53
2023-12-23T04:29:42.102Z,98236.66
2023-12-23T04:32:44.658Z,98252.22
2023-12-23T04:35:47.258Z,98245.84
2023-12-23T04:38:50.251Z,98290.19
2023-12-23T04:41:54.734Z,98248.19
2023-12-23T04:44:57.207Z,98281.75
2023-12-23T04:48:00.416Z,98288.47
2023-12-23T04:51:02.825Z,98317.03
2023-12-23T04:54:05.338Z,98336.06
2023-12-23T04:57:07.683Z,98340.34
2023-12-23T05:00:10.799Z,98339.81
2023-12-23T05:03:13.202Z,98300.19
2023-12-23T05:06:16.054Z,98331.59
2023-12-23T05:09:19.434Z,98336.97
2023-12-23T05:12:26.079Z,98333.59
2023-12-23T05:15:28.439Z,98336.38
2023-12-23T05:18:30.857Z,98310.03
2023-12-23T05:21:33.302Z,98350.22
2023-12-23T05:24:38.907Z,98354.59
2023-12-23T05:27:41.317Z,98355.28
2023-12-23T05:30:43.813Z,98346.59
2023-12-23T05:33:46.822Z,98361.06
2023-12-23T05:36:49.292Z,98338.84
2023-12-23T05:39:51.884Z,98376.78
2023-12-23T05:42:54.210Z,98364.59
2023-12-23T05:45:56.567Z,98359.44
2023-12-23T05:48:59.136Z,98373.94
2023-12-23T05:52:01.621Z,98379.06
2023-12-23T05:55:04.243Z,98383.72
2023-12-23T05:58:06.742Z,98357.31
2023-12-23T06:01:09.612Z,98359.19
2023-12-23T06:04:12.082Z,98382.81
2023-12-23T06:07:15.891Z,98357.81
2023-12-23T06:10:18.319Z,98386.63
2023-12-23T06:13:20.739Z,98394.66
2023-12-23T06:16:23.178Z,98397.75
2023-12-23T06:19:25.617Z,98416.91
2023-12-23T06:22:28.064Z,98403.72
2023-12-23T06:25:33.597Z,98425.34
2023-12-23T06:28:36.014Z,98447.06
2023-12-23T06:31:38.505Z,98427.97
2023-12-23T06:34:40.879Z,98439.94
2023-12-23T06:37:43.231Z,98442.22
2023-12-23T06:40:45.696Z,98461.22
2023-12-23T06:43:52.610Z,98483.81
2023-12-23T06:46:55.949Z,98497.00
2023-12-23T06:49:58.521Z,98495.97
2023-12-23T06:53:00.998Z,98500.72
2023-12-23T06:56:07.662Z,98465.69
2023-12-23T06:59:13.942Z,98519.88
2023-12-23T07:02:16.461Z,98499.09
2023-12-23T07:05:19.592Z,98521.44
2023-12-23T07:08:22.209Z,98514.38
2023-12-23T07:11:25.245Z,98519.81
2023-12-23T07:14:27.639Z,98550.13
2023-12-23T07:17:38.410Z,98538.31
2023-12-23T07:20:44.412Z,98544.53
2023-12-23T07:23:47.091Z,98551.03
2023-12-23T07:26:49.922Z,98551.78
2023-12-23T07:29:52.390Z,98562.72
2023-12-23T07:32:55.254Z,98601.50
2023-12-23T07:35:58.279Z,98613.66
2023-12-23T07:39:00.624Z,98624.00
2023-12-23T07:42:03.071Z,98648.19
2023-12-23T07:45:06.045Z,98650.53
2023-12-23T07:48:08.636Z,98657.44
2023-12-23T07:51:11.069Z,98673.03
2023-12-23T07:54:13.493Z,98699.44
2023-12-23T07:57:15.930Z,98706.56
2023-12-23T08:00:18.432Z,98700.81
2023-12-23T08:03:20.798Z,98726.75
2023-12-23T08:06:24.434Z,98721.00
2023-12-23T08:09:26.804Z,98765.25
2023-12-23T08:12:29.133Z,98759.34
2023-12-23T08:15:31.499Z,98808.34
2023-12-23T08:18:33.924Z,98809.09
2023-12-23T08:21:36.377Z,98827.75
2023-12-23T08:24:38.813Z,98811.47
2023-12-23T08:27:41.151Z,98812.09
2023-12-23T08:30:43.664Z,98859.63
2023-12-23T08:33:46.303Z,98848.78
2023-12-23T08:36:50.445Z,98852.50
2023-12-23T08:39:53.630Z,98837.25
2023-12-23T08:42:55.997Z,98857.75
2023-12-23T08:45:58.416Z,98873.59
2023-12-23T08:49:01.634Z,98885.94
2023-12-23T08:52:04.173Z,98871.13
2023-12-23T08:55:06.981Z,98869.84
2023-12-23T08:58:09.341Z,98894.41
2023-12-23T09:01:12.467Z,98884.38
2023-12-23T09:04:14.898Z,98905.09
2023-12-23T09:07:17.334Z,98886.44
2023-12-23T09:10:19.779Z,98894.31
2023-12-23T09:13:22.163Z,98902.38
2023-12-23T09:16:24.562Z,98901.63
2023-12-23T09:19:27.070Z,98903.59
2023-12-23T09:22:29.487Z,98885.34
2023-12-23T09:25:31.889Z,98916.44
2023-12-23T09:28:34.257Z,98881.44
2023-12-23T09:31:36.858Z,98915.06
2023-12-23T09:34:39.382Z,98913.91
2023-12-23T09:37:41.807Z,98903.75
2023-12-23T09:40:44.382Z,98906.03
2023-12-23T09:43:49.288Z,98899.09
2023-12-23T09:46:51.985Z,98897.56
2023-12-23T09:49:54.480Z,98901.56
2023-12-23T09:53:01.503Z,98882.88
2023-12-23T09:56:05.895Z,98906.94
2023-12-23T09:59:08.389Z,98883.41
2023-12-23T10:02:10.793Z,98858.19
2023-12-23T10:05:13.837Z,98875.50
2023-12-23T10:08:16.505Z,98884.50
2023-12-23T10:11:19.610Z,98876.66
2023-12-23T10:14:23.324Z,98892.34
2023-12-23T10:17:25.961Z,98891.28
2023-12-23T10:20:28.591Z,98889.44
2023-12-23T10:23:31.099Z,98877.16
2023-12-23T10:26:35.131Z,98882.06
2023-12-23T10:29:40.239Z,98875.94
2023-12-23T10:32:46.763Z,98886.25
2023-12-23T10:35:49.824Z,98883.53
2023-12-23T10:38:58.087Z,98859.66
2023-12-23T10:42:05.341Z,98853.31
2023-12-23T10:45:08.496Z,98833.25
2023-12-23T10:48:11.245Z,98864.94
2023-12-23T10:51:14.634Z,98857.47
2023-12-23T10:54:17.433Z,98876.50
2023-12-23T10:57:25.478Z,98861.34
2023-12-23T11:00:27.992Z,98832.84
2023-12-23T11:03:33.719Z,98847.41
2023-12-23T11:06:42.376Z,98841.59
2023-12-23T11:09:48.322Z,98810.66
2023-12-23T11:12:51.139Z,98844.91
2023-12-23T11:15:56.915Z,98811.47
2023-12-23T11:18:59.631Z,98827.03
2023-12-23T11:22:23.202Z,98801.44
2023-12-23T11:25:42.372Z,98809.75
2023-12-23T11:28:50.227Z,98806.56
2023-12-23T11:31:52.942Z,98831.03
2023-12-23T11:34:55.712Z,98825.31
2023-12-23T11:37:58.741Z,98829.47
2023-12-23T11:41:01.607Z,98805.28
2023-12-23T11:44:05.952Z,98815.94
2023-12-23T11:47:09.634Z,98796.91
2023-12-23T11:50:13.556Z,98819.00
2023-12-23T11:53:16.736Z,98786.88
2023-12-23T11:56:20.861Z,98822.88
2023-12-23T11:59:23.876Z,98779.03
2023-12-23T12:02:26.952Z,98809.97
2023-12-23T12:05:32.489Z,98814.91
2023-12-23T12:08:34.981Z,98790.19
2023-12-23T12:11:38.775Z,98794.34
2023-12-23T12:14:41.809Z,98804.44
2023-12-23T12:17:44.410Z,98794.66
2023-12-23T12:20:47.371Z,98815.53
2023-12-23T12:23:49.927Z,98803.84
2023-12-23T12:26:57.963Z,98810.47
2023-12-23T12:30:00.512Z,98817.28
2023-12-23T12:33:03.416Z,98819.88
2023-12-23T12:36:12.828Z,98799.16
2023-12-23T12:39:15.553Z,98798.19
2023-12-23T12:42:18.022Z,98789.06
2023-12-23T12:45:24.752Z,98815.09
2023-12-23T12:48:28.410Z,98790.72
2023-12-23T12:51:31.070Z,98804.22
2023-12-23T12:54:33.584Z,98778.72
2023-12-23T12:57:36.237Z,98793.72
2023-12-23T13:00:38.715Z,98753.28
2023-12-23T13:03:41.249Z,98730.84
2023-12-23T13:06:43.983Z,98775.09
2023-12-23T13:09:46.878Z,98780.28
2023-12-23T13:12:49.894Z,98775.22
2023-12-23T13:15:52.909Z,98778.78
2023-12-23T13:19:00.057Z,98767.16
2023-12-23T13:22:03.811Z,98779.03
2023-12-23T13:25:10.372Z,98768.91
2023-12-23T13:28:12.938Z,98762.47
2023-12-23T13:31:15.360Z,98785.06
2023-12-23T13:34:17.803Z,98786.16
2023-12-23T13:37:20.184Z,98762.00
2023-12-23T13:40:22.798Z,98759.44
2023-12-23T13:43:26.327Z,98749.19
2023-12-23T13:46:28.721Z,98732.78
2023-12-23T13:49:31.206Z,98763.97
2023-12-23T13:52:33.808Z,98795.91
2023-12-23T13:55:36.177Z,98764.94
2023-12-23T13:58:38.693Z,98766.75
2023-12-23T14:01:41.085Z,98718.34
2023-12-23T14:04:43.573Z,98788.78
2023-12-23T14:07:45.986Z,98776.25
2023-12-23T14:10:49.976Z,98785.38
2023-12-23T14:13:52.659Z,98789.97
2023-12-23T14:16:55.159Z,98800.44
2023-12-23T14:19:57.652Z,98813.53
2023-12-23T14:23:00.109Z,98806.31
2023-12-23T14:26:02.684Z,98789.16
2023-12-23T14:29:05.163Z,98806.16
2023-12-23T14:32:07.694Z,98813.16
2023-12-23T14:35:13.275Z,98792.00
2023-12-23T14:38:15.888Z,98819.78
2023-12-23T14:41:19.505Z,98803.38
2023-12-23T14:44:22.042Z,98797.69
2023-12-23T14:47:24.560Z,98828.09
2023-12-23T14:50:27.020Z,98840.91
2023-12-23T14:53:30.013Z,98838.66
2023-12-23T14:56:32.834Z,98850.75
2023-12-23T14:59:35.254Z,98851.75
2023-12-23T15:02:37.732Z,98847.47
2023-12-23T15:05:40.337Z,98836.72
2023-12-23T15:08:42.817Z,98851.16
2023-12-23T15:11:45.230Z,98849.78
2023-12-23T15:14:47.731Z,98851.00
2023-12-23T15:17:50.138Z,98868.44
2023-12-23T15:20:52.535Z,98843.34
2023-12-23T15:23:56.614Z,98842.75
2023-12-23T15:26:58.998Z,98873.03
2023-12-23T15:30:02.905Z,98845.47
2023-12-23T15:33:05.686Z,98883.31
2023-12-23T15:36:08.703Z,98887.53
2023-12-23T15:39:11.457Z,98894.13
2023-12-23T15:42:13.934Z,98904.50
2023-12-23T15:45:16.740Z,98890.09
2023-12-23T15:48:19.267Z,98921.25
2023-12-23T15:51:21.761Z,98904.00
2023-12-23T15:54:24.214Z,98911.75
2023-12-23T15:57:26.701Z,98878.09
2023-12-23T16:00:29.471Z,98932.53
2023-12-23T16:03:32.639Z,98916.66
2023-12-23T16:06:35.388Z,98941.91
2023-12-23T16:09:37.785Z,98921.75
2023-12-23T16:12:40.568Z,98941.88
2023-12-23T16:15:43.063Z,98950.34
2023-12-23T16:18:45.750Z,98960.41
2023-12-23T16:21:48.288Z,98944.50
2023-12-23T16:24:50.732Z,98942.84
2023-12-23T16:27:53.144Z,98967.97
2023-12-23T16:30:55.905Z,98962.84
2023-12-23T16:33:58.302Z,98986.53
2023-12-23T16:37:00.712Z,98985.84
2023-12-23T16:40:03.451Z,98994.28
2023-12-23T16:43:05.982Z,98996.00
2023-12-23T16:46:09.363Z,98979.44
2023-12-23T16:49:11.741Z,98984.44
2023-12-23T16:52:14.233Z,98982.00
2023-12-23T16:55:16.639Z,99016.28
2023-12-23T16:58:19.885Z,98996.50
2023-12-23T17:01:22.391Z,99024.09
2023-12-23T17:04:24.762Z,99021.63
2023-12-23T17:07:27.152Z,99027.56
2023-12-23T17:10:30.349Z,99012.78
2023-12-23T17:13:34.475Z,99016.88
2023-12-23T17:16:36.844Z,99008.25
2023-12-23T17:19:39.267Z,99003.38
2023-12-23T17:22:41.672Z,99005.84
2023-12-23T17:25:44.052Z,99034.41
2023-12-23T17:28:46.470Z,99013.75
2023-12-23T17:31:48.816Z,99025.38
2023-12-23T17:34:51.228Z,99040.34
2023-12-23T17:37:53.634Z,99038.66
2023-12-23T17:40:56.047Z,99026.88
2023-12-23T17:43:58.431Z,99043.97
2023-12-23T17:47:01.380Z,99014.72
2023-12-23T17:50:05.519Z,99029.19
2023-12-23T17:53:08.183Z,99046.03
2023-12-23T17:56:11.766Z,99015.88
2023-12-23T17:59:14.219Z,99043.41
2023-12-23T18:02:18.253Z,98998.19
2023-12-23T18:05:20.806Z,99023.63
2023-12-23T18:08:23.338Z,99041.34
2023-12-23T18:11:25.928Z,99017.81
2023-12-23T18:14:29.681Z,99020.53
2023-12-23T18:17:32.445Z,99018.22
2023-12-23T18:20:35.004Z,99037.56
2023-12-23T18:23:37.506Z,99044.16
2023-12-23T18:26:39.946Z,99024.00
2023-12-23T18:29:42.319Z,99016.81
2023-12-23T18:32:44.867Z,99032.66
2023-12-23T18:35:48.049Z,99040.25
2023-12-23T18:38:50.589Z,99037.78
2023-12-23T18:41:53.010Z,99019.31
2023-12-23T18:44:55.471Z,99027.50
2023-12-23T18:47:58.534Z,99018.22
2023-12-23T18:51:01.360Z,99041.44
2023-12-23T18:54:03.954Z,99026.53
2023-12-23T18:57:07.446Z,99038.16
2023-12-23T19:00:10.944Z,99039.72
2023-12-23T19:03:15.111Z,99029.66
2023-12-23T19:06:17.631Z,99058.66
2023-12-23T19:09:20.013Z,99058.53
2023-12-23T19:12:22.655Z,99034.09
2023-12-23T19:15:25.073Z,99034.81
2023-12-23T19:18:27.617Z,99038.47
2023-12-23T19:21:30.071Z,99062.06
2023-12-23T19:24:32.427Z,99082.97
2023-12-23T19:27:35.138Z,99071.16
2023-12-23T19:30:37.784Z,99081.06
2023-12-23T19:33:40.457Z,99079.72
2023-12-23T19:36:43.125Z,99063.63
2023-12-23T19:39:55.748Z,99079.91
2023-12-23T19:43:05.780Z,99070.47
2023-12-23T19:46:08.596Z,99074.22
2023-12-23T19:49:11.152Z,99066.53
2023-12-23T19:52:13.729Z,99069.16
2023-12-23T19:55:16.146Z,99059.31
2023-12-23T19:58:18.557Z,99095.53
2023-12-23T20:01:20.995Z,99085.97
2023-12-23T20:04:23.476Z,99105.25
2023-12-23T20:07:25.862Z,99087.25
2023-12-23T20:10:28.325Z,99095.31
2023-12-23T20:13:31.408Z,99086.88
2023-12-23T20:16:33.984Z,99115.59
2023-12-23T20:19:36.373Z,99114.69
2023-12-23T20:22:39.911Z,99095.63
2023-12-23T20:25:42.506Z,99117.69
2023-12-23T20:28:45.466Z,99122.00
2023-12-23T20:31:47.909Z,99111.81
2023-12-23T20:34:50.352Z,99122.53
2023-12-23T20:37:52.792Z,99120.97
2023-12-23T20:40:56.021Z,99133.44
2023-12-23T20:43:58.471Z,99109.16
2023-12-23T20:47:00.929Z,99114.22
2023-12-23T20:50:03.638Z,99135.13
2023-12-23T20:53:06.879Z,99125.88
2023-12-23T20:56:09.359Z,99122.44
2023-12-23T20:59:11.827Z,99144.63
2023-12-23T21:02:14.232Z,99162.38
2023-12-23T21:05:16.830Z,99141.38
2023-12-23T21:08:19.439Z,99175.66
2023-12-23T21:11:22.018Z,99164.88
2023-12-23T21:14:24.411Z,99182.66
2023-12-23T21:17:27.378Z,99160.44
2023-12-23T21:20:29.783Z,99156.97
2023-12-23T21:23:32.530Z,99195.84
2023-12-23T21:26:35.747Z,99171.78
2023-12-23T21:29:38.286Z,99198.03
2023-12-23T21:32:40.913Z,99175.16
2023-12-23T21:35:47.695Z,99171.91
2023-12-23T21:38:50.102Z,99185.84
2023-12-23T21:41:52.493Z,99213.69
2023-12-23T21:44:54.951Z,99196.63
2023-12-23T21:47:57.577Z,99189.72
2023-12-23T21:51:00.102Z,99192.47
2023-12-23T21:54:03.516Z,99218.53
2023-12-23T21:57:05.936Z,99233.09
2023-12-23T22:00:09.643Z,99209.66
2023-12-23T22:03:12.212Z,99198.88
2023-12-23T22:06:14.993Z,99209.06
2023-12-23T22:09:17.524Z,99237.81
2023-12-23T22:12:19.922Z,99240.28
2023-12-23T22:15:22.356Z,99240.56
2023-12-23T22:18:24.828Z,99240.19
2023-12-23T22:21:27.474Z,99251.31
2023-12-23T22:24:29.820Z,99224.44
2023-12-23T22:27:32.183Z,99247.41
2023-12-23T22:30:34.705Z,99230.78
2023-12-23T22:33:37.156Z,99249.59
2023-12-23T22:36:39.630Z,99244.31
2023-12-23T22:39:48.672Z,99229.81
2023-12-23T22:42:51.908Z,99251.41
2023-12-23T22:45:54.668Z,99259.41
2023-12-23T22:48:57.051Z,99237.91
2023-12-23T22:51:59.429Z,99261.13
2023-12-23T22:55:01.816Z,99245.84
2023-12-23T22:58:04.688Z,99263.94
2023-12-23T23:01:07.182Z,99269.94
2023-12-23T23:04:09.659Z,99275.75
2023-12-23T23:07:12.757Z,99282.50
2023-12-23T23:10:17.041Z,99260.44
2023-12-23T23:13:19.415Z,99291.72
2023-12-23T23:16:21.815Z,99274.41
2023-12-23T23:19:24.372Z,99248.91
2023-12-23T23:22:28.092Z,99269.13
2023-12-23T23:25:30.444Z,99269.53
2023-12-23T23:28:32.796Z,99298.88
2023-12-23T23:31:35.199Z,99298.94
2023-12-23T23:34:37.606Z,99309.91
2023-12-23T23:37:41.002Z,99300.53
2023-12-23T23:40:43.463Z,99301.56
2023-12-23T23:43:46.027Z,99285.97
2023-12-23T23:46:48.442Z,99311.13
2023-12-23T23:49:50.890Z,99307.44
2023-12-23T23:52:53.584Z,99297.44
2023-12-23T23:55:56.108Z,99293.94
2023-12-23T23:58:58.583Z,99304.28
